sensor_id;sensor_type;location;lat;lon;timestamp;P1;durP1;ratioP1;P2;durP2;ratioP2
9160;SDS011;4615;51.340;8.288;2024-03-02T00:01:14;4.68;;;4.03;;
9160;SDS011;4615;51.340;8.288;2024-03-02T00:03:41;4.35;;;3.95;;
9160;SDS011;4615;51.340;8.288;2024-03-02T00:06:08;4.40;;;4.10;;
9160;SDS011;4615;51.340;8.288;2024-03-02T00:08:36;4.40;;;4.00;;
9160;SDS011;4615;51.340;8.288;2024-03-02T00:11:02;4.10;;;3.70;;
9160;SDS011;4615;51.340;8.288;2024-03-02T00:13:29;3.95;;;3.65;;
9160;SDS011;4615;51.340;8.288;2024-03-02T00:15:56;4.30;;;3.90;;
9160;SDS011;4615;51.340;8.288;2024-03-02T00:18:25;4.30;;;3.90;;
9160;SDS011;4615;51.340;8.288;2024-03-02T00:20:52;4.25;;;3.72;;
9160;SDS011;4615;51.340;8.288;2024-03-02T00:23:19;4.15;;;3.78;;
9160;SDS011;4615;51.340;8.288;2024-03-02T00:25:48;4.55;;;3.95;;
9160;SDS011;4615;51.340;8.288;2024-03-02T00:28:16;4.47;;;4.07;;
9160;SDS011;4615;51.340;8.288;2024-03-02T00:30:51;4.07;;;3.65;;
9160;SDS011;4615;51.340;8.288;2024-03-02T00:33:18;4.05;;;3.65;;
9160;SDS011;4615;51.340;8.288;2024-03-02T00:35:45;3.97;;;3.67;;
9160;SDS011;4615;51.340;8.288;2024-03-02T00:38:11;3.90;;;3.60;;
9160;SDS011;4615;51.340;8.288;2024-03-02T00:40:39;3.83;;;3.50;;
9160;SDS011;4615;51.340;8.288;2024-03-02T00:43:07;4.33;;;3.93;;
9160;SDS011;4615;51.340;8.288;2024-03-02T00:45:36;4.03;;;3.72;;
9160;SDS011;4615;51.340;8.288;2024-03-02T00:48:05;4.20;;;3.80;;
9160;SDS011;4615;51.340;8.288;2024-03-02T00:50:32;4.47;;;3.97;;
9160;SDS011;4615;51.340;8.288;2024-03-02T00:52:58;4.45;;;4.05;;
9160;SDS011;4615;51.340;8.288;2024-03-02T00:55:25;4.53;;;4.13;;
9160;SDS011;4615;51.340;8.288;2024-03-02T00:57:52;4.40;;;4.00;;
9160;SDS011;4615;51.340;8.288;2024-03-02T01:00:20;4.85;;;4.45;;
9160;SDS011;4615;51.340;8.288;2024-03-02T01:02:46;5.00;;;4.50;;
9160;SDS011;4615;51.340;8.288;2024-03-02T01:05:13;4.75;;;4.35;;
9160;SDS011;4615;51.340;8.288;2024-03-02T01:07:39;4.60;;;4.10;;
9160;SDS011;4615;51.340;8.288;2024-03-02T01:10:06;5.00;;;4.50;;
9160;SDS011;4615;51.340;8.288;2024-03-02T01:12:32;4.57;;;4.18;;
9160;SDS011;4615;51.340;8.288;2024-03-02T01:14:59;4.65;;;4.25;;
9160;SDS011;4615;51.340;8.288;2024-03-02T01:17:27;4.87;;;4.47;;
9160;SDS011;4615;51.340;8.288;2024-03-02T01:19:53;4.97;;;4.47;;
9160;SDS011;4615;51.340;8.288;2024-03-02T01:22:18;5.30;;;4.80;;
9160;SDS011;4615;51.340;8.288;2024-03-02T01:24:50;5.10;;;4.60;;
9160;SDS011;4615;51.340;8.288;2024-03-02T01:27:16;4.65;;;4.25;;
9160;SDS011;4615;51.340;8.288;2024-03-02T01:29:43;4.95;;;4.55;;
9160;SDS011;4615;51.340;8.288;2024-03-02T01:32:10;4.65;;;4.25;;
9160;SDS011;4615;51.340;8.288;2024-03-02T01:34:36;4.97;;;4.57;;
9160;SDS011;4615;51.340;8.288;2024-03-02T01:37:03;5.20;;;4.70;;
9160;SDS011;4615;51.340;8.288;2024-03-02T01:39:29;5.20;;;4.80;;
9160;SDS011;4615;51.340;8.288;2024-03-02T01:41:56;5.45;;;4.95;;
9160;SDS011;4615;51.340;8.288;2024-03-02T01:44:22;5.40;;;4.90;;
9160;SDS011;4615;51.340;8.288;2024-03-02T01:46:49;4.88;;;4.47;;
9160;SDS011;4615;51.340;8.288;2024-03-02T01:49:16;5.38;;;4.88;;
9160;SDS011;4615;51.340;8.288;2024-03-02T01:51:43;5.45;;;4.95;;
9160;SDS011;4615;51.340;8.288;2024-03-02T01:54:10;4.85;;;4.45;;
9160;SDS011;4615;51.340;8.288;2024-03-02T01:56:36;5.60;;;5.10;;
9160;SDS011;4615;51.340;8.288;2024-03-02T01:59:02;5.65;;;5.15;;
9160;SDS011;4615;51.340;8.288;2024-03-02T02:01:29;5.88;;;5.28;;
9160;SDS011;4615;51.340;8.288;2024-03-02T02:03:56;5.82;;;5.22;;
9160;SDS011;4615;51.340;8.288;2024-03-02T02:06:22;5.50;;;5.00;;
9160;SDS011;4615;51.340;8.288;2024-03-02T02:08:50;5.72;;;5.22;;
9160;SDS011;4615;51.340;8.288;2024-03-02T02:11:16;5.70;;;4.97;;
9160;SDS011;4615;51.340;8.288;2024-03-02T02:13:43;5.13;;;4.65;;
9160;SDS011;4615;51.340;8.288;2024-03-02T02:16:09;5.35;;;4.85;;
9160;SDS011;4615;51.340;8.288;2024-03-02T02:18:36;5.25;;;4.75;;
9160;SDS011;4615;51.340;8.288;2024-03-02T02:21:02;5.65;;;5.15;;
9160;SDS011;4615;51.340;8.288;2024-03-02T02:23:30;5.83;;;5.23;;
9160;SDS011;4615;51.340;8.288;2024-03-02T02:25:56;5.30;;;4.80;;
9160;SDS011;4615;51.340;8.288;2024-03-02T02:28:23;5.60;;;4.97;;
9160;SDS011;4615;51.340;8.288;2024-03-02T02:30:49;5.60;;;5.00;;
9160;SDS011;4615;51.340;8.288;2024-03-02T02:33:15;5.57;;;5.07;;
9160;SDS011;4615;51.340;8.288;2024-03-02T02:35:42;5.38;;;4.88;;
9160;SDS011;4615;51.340;8.288;2024-03-02T02:38:08;5.38;;;4.75;;
9160;SDS011;4615;51.340;8.288;2024-03-02T02:40:36;5.43;;;4.75;;
9160;SDS011;4615;51.340;8.288;2024-03-02T02:43:02;5.15;;;4.60;;
9160;SDS011;4615;51.340;8.288;2024-03-02T02:45:29;5.75;;;4.60;;
9160;SDS011;4615;51.340;8.288;2024-03-02T02:47:55;5.23;;;4.73;;
9160;SDS011;4615;51.340;8.288;2024-03-02T02:50:22;5.28;;;4.35;;
9160;SDS011;4615;51.340;8.288;2024-03-02T02:52:48;5.03;;;4.53;;
9160;SDS011;4615;51.340;8.288;2024-03-02T02:55:15;5.00;;;4.30;;
9160;SDS011;4615;51.340;8.288;2024-03-02T02:57:43;5.60;;;4.57;;
9160;SDS011;4615;51.340;8.288;2024-03-02T03:00:11;4.95;;;4.30;;
9160;SDS011;4615;51.340;8.288;2024-03-02T03:02:39;5.13;;;4.63;;
9160;SDS011;4615;51.340;8.288;2024-03-02T03:05:07;5.93;;;4.80;;
9160;SDS011;4615;51.340;8.288;2024-03-02T03:07:34;5.88;;;4.88;;
9160;SDS011;4615;51.340;8.288;2024-03-02T03:10:01;5.30;;;4.80;;
9160;SDS011;4615;51.340;8.288;2024-03-02T03:12:28;5.72;;;4.90;;
9160;SDS011;4615;51.340;8.288;2024-03-02T03:14:56;5.00;;;4.40;;
9160;SDS011;4615;51.340;8.288;2024-03-02T03:17:22;6.35;;;5.20;;
9160;SDS011;4615;51.340;8.288;2024-03-02T03:19:49;6.03;;;4.75;;
9160;SDS011;4615;51.340;8.288;2024-03-02T03:22:15;5.03;;;4.45;;
9160;SDS011;4615;51.340;8.288;2024-03-02T03:24:41;5.05;;;4.38;;
9160;SDS011;4615;51.340;8.288;2024-03-02T03:27:08;4.68;;;4.20;;
9160;SDS011;4615;51.340;8.288;2024-03-02T03:29:35;4.15;;;3.75;;
9160;SDS011;4615;51.340;8.288;2024-03-02T03:32:03;4.57;;;4.07;;
9160;SDS011;4615;51.340;8.288;2024-03-02T03:34:32;5.50;;;3.90;;
9160;SDS011;4615;51.340;8.288;2024-03-02T03:36:58;4.40;;;4.00;;
9160;SDS011;4615;51.340;8.288;2024-03-02T03:39:24;4.90;;;3.95;;
9160;SDS011;4615;51.340;8.288;2024-03-02T03:41:51;4.10;;;3.70;;
9160;SDS011;4615;51.340;8.288;2024-03-02T03:44:17;4.57;;;3.90;;
9160;SDS011;4615;51.340;8.288;2024-03-02T03:46:43;3.80;;;3.42;;
9160;SDS011;4615;51.340;8.288;2024-03-02T03:49:11;4.40;;;4.00;;
9160;SDS011;4615;51.340;8.288;2024-03-02T03:51:37;4.03;;;3.63;;
9160;SDS011;4615;51.340;8.288;2024-03-02T03:54:04;4.53;;;3.67;;
9160;SDS011;4615;51.340;8.288;2024-03-02T03:56:30;4.18;;;3.55;;
9160;SDS011;4615;51.340;8.288;2024-03-02T03:58:57;4.35;;;3.70;;
9160;SDS011;4615;51.340;8.288;2024-03-02T04:01:24;3.75;;;3.45;;
9160;SDS011;4615;51.340;8.288;2024-03-02T04:03:51;4.10;;;3.55;;
9160;SDS011;4615;51.340;8.288;2024-03-02T04:06:18;4.23;;;3.57;;
9160;SDS011;4615;51.340;8.288;2024-03-02T04:08:45;3.50;;;3.20;;
9160;SDS011;4615;51.340;8.288;2024-03-02T04:11:11;4.15;;;3.42;;
9160;SDS011;4615;51.340;8.288;2024-03-02T04:13:37;3.97;;;3.30;;
9160;SDS011;4615;51.340;8.288;2024-03-02T04:16:03;3.73;;;3.37;;
9160;SDS011;4615;51.340;8.288;2024-03-02T04:18:30;4.00;;;3.30;;
9160;SDS011;4615;51.340;8.288;2024-03-02T04:20:57;3.55;;;3.20;;
9160;SDS011;4615;51.340;8.288;2024-03-02T04:23:25;3.65;;;3.20;;
9160;SDS011;4615;51.340;8.288;2024-03-02T04:25:52;3.78;;;3.20;;
9160;SDS011;4615;51.340;8.288;2024-03-02T04:28:18;4.05;;;3.40;;
9160;SDS011;4615;51.340;8.288;2024-03-02T04:30:44;4.33;;;3.30;;
9160;SDS011;4615;51.340;8.288;2024-03-02T04:33:11;3.10;;;2.80;;
9160;SDS011;4615;51.340;8.288;2024-03-02T04:35:37;4.68;;;3.08;;
9160;SDS011;4615;51.340;8.288;2024-03-02T04:38:03;3.22;;;2.92;;
9160;SDS011;4615;51.340;8.288;2024-03-02T04:40:31;3.00;;;2.70;;
9160;SDS011;4615;51.340;8.288;2024-03-02T04:42:58;3.25;;;2.80;;
9160;SDS011;4615;51.340;8.288;2024-03-02T04:45:24;3.08;;;2.78;;
9160;SDS011;4615;51.340;8.288;2024-03-02T04:47:51;3.25;;;2.95;;
9160;SDS011;4615;51.340;8.288;2024-03-02T04:50:16;3.33;;;3.03;;
9160;SDS011;4615;51.340;8.288;2024-03-02T04:52:42;3.85;;;2.90;;
9160;SDS011;4615;51.340;8.288;2024-03-02T04:55:09;3.80;;;3.20;;
9160;SDS011;4615;51.340;8.288;2024-03-02T04:57:46;3.20;;;2.73;;
9160;SDS011;4615;51.340;8.288;2024-03-02T05:00:13;3.50;;;3.03;;
9160;SDS011;4615;51.340;8.288;2024-03-02T05:02:39;3.10;;;2.80;;
9160;SDS011;4615;51.340;8.288;2024-03-02T05:05:06;3.70;;;3.30;;
9160;SDS011;4615;51.340;8.288;2024-03-02T05:07:32;4.25;;;3.10;;
9160;SDS011;4615;51.340;8.288;2024-03-02T05:09:58;3.40;;;3.10;;
9160;SDS011;4615;51.340;8.288;2024-03-02T05:12:25;3.20;;;2.90;;
9160;SDS011;4615;51.340;8.288;2024-03-02T05:15:22;3.78;;;3.42;;
9160;SDS011;4615;51.340;8.288;2024-03-02T05:17:48;4.22;;;3.47;;
9160;SDS011;4615;51.340;8.288;2024-03-02T05:20:14;3.38;;;3.08;;
9160;SDS011;4615;51.340;8.288;2024-03-02T05:22:40;4.07;;;3.50;;
9160;SDS011;4615;51.340;8.288;2024-03-02T05:25:06;3.60;;;3.30;;
9160;SDS011;4615;51.340;8.288;2024-03-02T05:27:34;3.75;;;3.40;;
9160;SDS011;4615;51.340;8.288;2024-03-02T05:30:01;3.97;;;3.58;;
9160;SDS011;4615;51.340;8.288;2024-03-02T05:32:30;3.90;;;3.50;;
9160;SDS011;4615;51.340;8.288;2024-03-02T05:34:56;3.72;;;3.22;;
9160;SDS011;4615;51.340;8.288;2024-03-02T05:37:22;4.07;;;3.67;;
9160;SDS011;4615;51.340;8.288;2024-03-02T05:39:49;3.75;;;3.30;;
9160;SDS011;4615;51.340;8.288;2024-03-02T05:42:15;3.30;;;3.00;;
9160;SDS011;4615;51.340;8.288;2024-03-02T05:44:42;4.88;;;3.53;;
9160;SDS011;4615;51.340;8.288;2024-03-02T05:47:08;4.18;;;3.30;;
9160;SDS011;4615;51.340;8.288;2024-03-02T05:49:36;3.33;;;3.03;;
9160;SDS011;4615;51.340;8.288;2024-03-02T05:52:02;3.40;;;3.10;;
9160;SDS011;4615;51.340;8.288;2024-03-02T05:54:29;3.40;;;3.10;;
9160;SDS011;4615;51.340;8.288;2024-03-02T05:56:55;4.07;;;3.25;;
9160;SDS011;4615;51.340;8.288;2024-03-02T05:59:21;3.50;;;3.20;;
9160;SDS011;4615;51.340;8.288;2024-03-02T06:01:48;3.40;;;3.10;;
9160;SDS011;4615;51.340;8.288;2024-03-02T06:04:15;4.03;;;3.08;;
9160;SDS011;4615;51.340;8.288;2024-03-02T06:06:43;3.30;;;2.97;;
9160;SDS011;4615;51.340;8.288;2024-03-02T06:09:10;3.85;;;3.45;;
9160;SDS011;4615;51.340;8.288;2024-03-02T06:11:37;4.40;;;3.80;;
9160;SDS011;4615;51.340;8.288;2024-03-02T06:14:04;4.15;;;3.75;;
9160;SDS011;4615;51.340;8.288;2024-03-02T06:16:30;3.97;;;3.55;;
9160;SDS011;4615;51.340;8.288;2024-03-02T06:18:57;5.13;;;4.00;;
9160;SDS011;4615;51.340;8.288;2024-03-02T06:21:23;5.03;;;4.10;;
9160;SDS011;4615;51.340;8.288;2024-03-02T06:23:51;6.30;;;4.68;;
9160;SDS011;4615;51.340;8.288;2024-03-02T06:26:17;6.70;;;4.90;;
9160;SDS011;4615;51.340;8.288;2024-03-02T06:28:44;5.60;;;4.50;;
9160;SDS011;4615;51.340;8.288;2024-03-02T06:31:10;5.15;;;4.40;;
9160;SDS011;4615;51.340;8.288;2024-03-02T06:33:37;6.10;;;4.40;;
9160;SDS011;4615;51.340;8.288;2024-03-02T06:36:03;5.90;;;4.60;;
9160;SDS011;4615;51.340;8.288;2024-03-02T06:38:33;4.72;;;4.22;;
9160;SDS011;4615;51.340;8.288;2024-03-02T06:41:01;5.43;;;4.13;;
9160;SDS011;4615;51.340;8.288;2024-03-02T06:43:27;4.32;;;3.90;;
9160;SDS011;4615;51.340;8.288;2024-03-02T06:45:53;4.43;;;3.83;;
9160;SDS011;4615;51.340;8.288;2024-03-02T06:48:20;5.03;;;4.18;;
9160;SDS011;4615;51.340;8.288;2024-03-02T06:50:46;4.25;;;3.85;;
9160;SDS011;4615;51.340;8.288;2024-03-02T06:53:13;4.23;;;3.83;;
9160;SDS011;4615;51.340;8.288;2024-03-02T06:55:42;3.40;;;3.10;;
9160;SDS011;4615;51.340;8.288;2024-03-02T06:58:10;4.70;;;3.75;;
9160;SDS011;4615;51.340;8.288;2024-03-02T07:00:37;4.00;;;3.60;;
9160;SDS011;4615;51.340;8.288;2024-03-02T07:03:03;3.88;;;3.47;;
9160;SDS011;4615;51.340;8.288;2024-03-02T07:05:30;5.18;;;4.00;;
9160;SDS011;4615;51.340;8.288;2024-03-02T07:07:56;4.28;;;3.63;;
9160;SDS011;4615;51.340;8.288;2024-03-02T07:10:22;4.05;;;3.50;;
9160;SDS011;4615;51.340;8.288;2024-03-02T07:12:49;4.00;;;3.60;;
9160;SDS011;4615;51.340;8.288;2024-03-02T07:15:17;4.00;;;3.60;;
9160;SDS011;4615;51.340;8.288;2024-03-02T07:18:09;4.07;;;3.40;;
9160;SDS011;4615;51.340;8.288;2024-03-02T07:20:35;5.03;;;3.70;;
9160;SDS011;4615;51.340;8.288;2024-03-02T07:23:04;3.65;;;3.33;;
9160;SDS011;4615;51.340;8.288;2024-03-02T07:25:30;4.43;;;3.60;;
9160;SDS011;4615;51.340;8.288;2024-03-02T07:27:57;3.85;;;3.40;;
9160;SDS011;4615;51.340;8.288;2024-03-02T07:30:25;4.57;;;3.50;;
9160;SDS011;4615;51.340;8.288;2024-03-02T07:32:51;4.00;;;3.30;;
9160;SDS011;4615;51.340;8.288;2024-03-02T07:35:17;4.25;;;3.20;;
9160;SDS011;4615;51.340;8.288;2024-03-02T07:37:44;3.30;;;3.00;;
9160;SDS011;4615;51.340;8.288;2024-03-02T07:40:11;4.20;;;3.60;;
9160;SDS011;4615;51.340;8.288;2024-03-02T07:42:37;3.92;;;3.28;;
9160;SDS011;4615;51.340;8.288;2024-03-02T07:45:05;3.67;;;3.35;;
9160;SDS011;4615;51.340;8.288;2024-03-02T07:47:33;4.18;;;3.30;;
9160;SDS011;4615;51.340;8.288;2024-03-02T07:49:59;3.95;;;3.53;;
9160;SDS011;4615;51.340;8.288;2024-03-02T07:52:25;4.35;;;3.95;;
9160;SDS011;4615;51.340;8.288;2024-03-02T07:54:52;3.90;;;3.50;;
9160;SDS011;4615;51.340;8.288;2024-03-02T07:57:19;4.63;;;3.67;;
9160;SDS011;4615;51.340;8.288;2024-03-02T07:59:45;4.25;;;3.70;;
9160;SDS011;4615;51.340;8.288;2024-03-02T08:02:12;4.07;;;3.40;;
9160;SDS011;4615;51.340;8.288;2024-03-02T08:04:40;4.80;;;3.42;;
9160;SDS011;4615;51.340;8.288;2024-03-02T08:07:06;4.03;;;3.60;;
9160;SDS011;4615;51.340;8.288;2024-03-02T08:09:31;4.35;;;3.60;;
9160;SDS011;4615;51.340;8.288;2024-03-02T08:11:58;4.18;;;3.40;;
9160;SDS011;4615;51.340;8.288;2024-03-02T08:14:24;4.72;;;3.78;;
9160;SDS011;4615;51.340;8.288;2024-03-02T08:16:51;4.10;;;3.50;;
9160;SDS011;4615;51.340;8.288;2024-03-02T08:19:17;4.00;;;3.40;;
9160;SDS011;4615;51.340;8.288;2024-03-02T08:21:45;4.63;;;3.58;;
9160;SDS011;4615;51.340;8.288;2024-03-02T08:24:11;3.70;;;3.25;;
9160;SDS011;4615;51.340;8.288;2024-03-02T08:26:37;4.68;;;3.33;;
9160;SDS011;4615;51.340;8.288;2024-03-02T08:29:04;3.50;;;3.20;;
9160;SDS011;4615;51.340;8.288;2024-03-02T08:31:30;3.70;;;3.40;;
9160;SDS011;4615;51.340;8.288;2024-03-02T08:33:56;4.07;;;3.30;;
9160;SDS011;4615;51.340;8.288;2024-03-02T08:36:23;3.80;;;3.40;;
9160;SDS011;4615;51.340;8.288;2024-03-02T08:38:51;4.03;;;3.33;;
9160;SDS011;4615;51.340;8.288;2024-03-02T08:41:18;3.80;;;3.17;;
9160;SDS011;4615;51.340;8.288;2024-03-02T08:43:44;3.95;;;3.30;;
9160;SDS011;4615;51.340;8.288;2024-03-02T08:46:10;3.60;;;3.20;;
9160;SDS011;4615;51.340;8.288;2024-03-02T08:48:37;4.55;;;3.10;;
9160;SDS011;4615;51.340;8.288;2024-03-02T08:51:03;4.03;;;3.10;;
9160;SDS011;4615;51.340;8.288;2024-03-02T08:53:32;3.70;;;3.22;;
9160;SDS011;4615;51.340;8.288;2024-03-02T08:56:00;3.75;;;3.20;;
9160;SDS011;4615;51.340;8.288;2024-03-02T08:58:26;3.70;;;3.20;;
9160;SDS011;4615;51.340;8.288;2024-03-02T09:00:53;3.30;;;3.00;;
9160;SDS011;4615;51.340;8.288;2024-03-02T09:03:19;3.75;;;3.40;;
9160;SDS011;4615;51.340;8.288;2024-03-02T09:05:45;3.53;;;3.10;;
9160;SDS011;4615;51.340;8.288;2024-03-02T09:08:12;3.33;;;3.03;;
9160;SDS011;4615;51.340;8.288;2024-03-02T09:10:38;4.13;;;3.10;;
9160;SDS011;4615;51.340;8.288;2024-03-02T09:13:06;4.50;;;3.20;;
9160;SDS011;4615;51.340;8.288;2024-03-02T09:15:32;3.50;;;3.20;;
9160;SDS011;4615;51.340;8.288;2024-03-02T09:18:02;3.72;;;3.20;;
9160;SDS011;4615;51.340;8.288;2024-03-02T09:20:29;3.67;;;3.30;;
9160;SDS011;4615;51.340;8.288;2024-03-02T09:22:55;4.10;;;3.45;;
9160;SDS011;4615;51.340;8.288;2024-03-02T09:25:21;3.53;;;3.20;;
9160;SDS011;4615;51.340;8.288;2024-03-02T09:27:48;3.85;;;3.20;;
9160;SDS011;4615;51.340;8.288;2024-03-02T09:30:15;3.50;;;3.10;;
9160;SDS011;4615;51.340;8.288;2024-03-02T09:32:41;2.70;;;2.50;;
9160;SDS011;4615;51.340;8.288;2024-03-02T09:35:08;3.22;;;2.83;;
9160;SDS011;4615;51.340;8.288;2024-03-02T09:37:34;3.67;;;2.97;;
9160;SDS011;4615;51.340;8.288;2024-03-02T09:40:00;2.97;;;2.67;;
9160;SDS011;4615;51.340;8.288;2024-03-02T09:42:27;3.35;;;3.05;;
9160;SDS011;4615;51.340;8.288;2024-03-02T09:44:53;2.90;;;2.60;;
9160;SDS011;4615;51.340;8.288;2024-03-02T09:47:21;3.93;;;2.70;;
9160;SDS011;4615;51.340;8.288;2024-03-02T09:49:47;3.63;;;2.90;;
9160;SDS011;4615;51.340;8.288;2024-03-02T09:52:14;3.10;;;2.80;;
9160;SDS011;4615;51.340;8.288;2024-03-02T09:54:41;3.85;;;3.13;;
9160;SDS011;4615;51.340;8.288;2024-03-02T09:57:07;4.60;;;3.15;;
9160;SDS011;4615;51.340;8.288;2024-03-02T09:59:34;3.25;;;2.95;;
9160;SDS011;4615;51.340;8.288;2024-03-02T10:02:01;3.35;;;2.90;;
9160;SDS011;4615;51.340;8.288;2024-03-02T10:04:29;4.60;;;3.20;;
9160;SDS011;4615;51.340;8.288;2024-03-02T10:07:12;3.30;;;3.00;;
9160;SDS011;4615;51.340;8.288;2024-03-02T10:09:38;3.47;;;3.00;;
9160;SDS011;4615;51.340;8.288;2024-03-02T10:12:06;3.83;;;3.07;;
9160;SDS011;4615;51.340;8.288;2024-03-02T10:14:33;3.43;;;3.13;;
9160;SDS011;4615;51.340;8.288;2024-03-02T10:17:01;3.05;;;2.75;;
9160;SDS011;4615;51.340;8.288;2024-03-02T10:19:29;3.20;;;2.90;;
9160;SDS011;4615;51.340;8.288;2024-03-02T10:21:58;3.33;;;2.90;;
9160;SDS011;4615;51.340;8.288;2024-03-02T10:24:24;3.22;;;2.83;;
9160;SDS011;4615;51.340;8.288;2024-03-02T10:26:51;3.05;;;2.83;;
9160;SDS011;4615;51.340;8.288;2024-03-02T10:29:18;3.37;;;3.07;;
9160;SDS011;4615;51.340;8.288;2024-03-02T10:31:44;3.30;;;3.00;;
9160;SDS011;4615;51.340;8.288;2024-03-02T10:34:12;5.70;;;3.25;;
9160;SDS011;4615;51.340;8.288;2024-03-02T10:36:41;3.38;;;3.00;;
9160;SDS011;4615;51.340;8.288;2024-03-02T10:39:08;3.40;;;3.10;;
9160;SDS011;4615;51.340;8.288;2024-03-02T10:41:36;7.13;;;5.27;;
9160;SDS011;4615;51.340;8.288;2024-03-02T10:44:03;5.28;;;4.45;;
9160;SDS011;4615;51.340;8.288;2024-03-02T10:46:30;3.80;;;2.63;;
9160;SDS011;4615;51.340;8.288;2024-03-02T10:48:56;3.00;;;2.70;;
9160;SDS011;4615;51.340;8.288;2024-03-02T10:51:24;2.70;;;2.40;;
9160;SDS011;4615;51.340;8.288;2024-03-02T10:53:51;2.40;;;2.20;;
9160;SDS011;4615;51.340;8.288;2024-03-02T10:56:20;2.67;;;2.47;;
9160;SDS011;4615;51.340;8.288;2024-03-02T10:58:47;2.72;;;2.38;;
9160;SDS011;4615;51.340;8.288;2024-03-02T11:01:17;2.67;;;2.47;;
9160;SDS011;4615;51.340;8.288;2024-03-02T11:03:43;2.80;;;2.30;;
9160;SDS011;4615;51.340;8.288;2024-03-02T11:06:10;2.40;;;2.20;;
9160;SDS011;4615;51.340;8.288;2024-03-02T11:08:37;3.60;;;2.60;;
9160;SDS011;4615;51.340;8.288;2024-03-02T11:11:07;2.55;;;2.35;;
9160;SDS011;4615;51.340;8.288;2024-03-02T11:13:37;3.55;;;2.40;;
9160;SDS011;4615;51.340;8.288;2024-03-02T11:16:05;3.67;;;2.60;;
9160;SDS011;4615;51.340;8.288;2024-03-02T11:18:32;2.80;;;2.60;;
9160;SDS011;4615;51.340;8.288;2024-03-02T11:20:59;2.60;;;2.40;;
9160;SDS011;4615;51.340;8.288;2024-03-02T11:23:31;3.00;;;2.80;;
9160;SDS011;4615;51.340;8.288;2024-03-02T11:28:40;2.83;;;2.63;;
9160;SDS011;4615;51.340;8.288;2024-03-02T11:31:07;2.43;;;2.23;;
9160;SDS011;4615;51.340;8.288;2024-03-02T11:33:33;2.78;;;2.30;;
9160;SDS011;4615;51.340;8.288;2024-03-02T11:35:58;3.17;;;2.73;;
9160;SDS011;4615;51.340;8.288;2024-03-02T11:38:30;3.40;;;2.90;;
9160;SDS011;4615;51.340;8.288;2024-03-02T11:40:57;3.53;;;2.90;;
9160;SDS011;4615;51.340;8.288;2024-03-02T11:43:24;3.72;;;2.72;;
9160;SDS011;4615;51.340;8.288;2024-03-02T11:45:57;2.17;;;1.77;;
9160;SDS011;4615;51.340;8.288;2024-03-02T11:48:24;1.70;;;1.60;;
9160;SDS011;4615;51.340;8.288;2024-03-02T11:50:51;1.67;;;1.57;;
9160;SDS011;4615;51.340;8.288;2024-03-02T11:53:17;1.80;;;1.70;;
9160;SDS011;4615;51.340;8.288;2024-03-02T11:55:44;1.73;;;1.63;;
9160;SDS011;4615;51.340;8.288;2024-03-02T11:58:11;1.98;;;1.50;;
9160;SDS011;4615;51.340;8.288;2024-03-02T12:00:38;1.65;;;1.50;;
9160;SDS011;4615;51.340;8.288;2024-03-02T12:03:06;1.40;;;1.30;;
9160;SDS011;4615;51.340;8.288;2024-03-02T12:05:33;1.48;;;1.38;;
9160;SDS011;4615;51.340;8.288;2024-03-02T12:08:00;1.45;;;1.30;;
9160;SDS011;4615;51.340;8.288;2024-03-02T12:10:27;1.50;;;1.30;;
9160;SDS011;4615;51.340;8.288;2024-03-02T12:12:57;1.85;;;1.70;;
9160;SDS011;4615;51.340;8.288;2024-03-02T12:15:25;1.67;;;1.58;;
9160;SDS011;4615;51.340;8.288;2024-03-02T12:17:52;2.80;;;2.30;;
9160;SDS011;4615;51.340;8.288;2024-03-02T12:20:20;3.55;;;2.38;;
9160;SDS011;4615;51.340;8.288;2024-03-02T12:22:48;1.40;;;1.30;;
9160;SDS011;4615;51.340;8.288;2024-03-02T12:25:15;1.30;;;1.20;;
9160;SDS011;4615;51.340;8.288;2024-03-02T12:27:41;2.90;;;1.10;;
9160;SDS011;4615;51.340;8.288;2024-03-02T12:30:08;1.17;;;1.08;;
9160;SDS011;4615;51.340;8.288;2024-03-02T12:32:35;0.90;;;0.90;;
9160;SDS011;4615;51.340;8.288;2024-03-02T12:35:03;1.05;;;1.00;;
9160;SDS011;4615;51.340;8.288;2024-03-02T12:37:31;1.30;;;1.20;;
9160;SDS011;4615;51.340;8.288;2024-03-02T12:39:58;1.88;;;1.20;;
9160;SDS011;4615;51.340;8.288;2024-03-02T12:42:25;1.30;;;1.20;;
9160;SDS011;4615;51.340;8.288;2024-03-02T12:44:52;1.50;;;1.20;;
9160;SDS011;4615;51.340;8.288;2024-03-02T12:47:19;1.88;;;1.30;;
9160;SDS011;4615;51.340;8.288;2024-03-02T12:49:45;1.40;;;1.30;;
9160;SDS011;4615;51.340;8.288;2024-03-02T12:52:12;1.33;;;1.23;;
9160;SDS011;4615;51.340;8.288;2024-03-02T12:54:39;1.45;;;1.35;;
9160;SDS011;4615;51.340;8.288;2024-03-02T12:57:06;1.90;;;1.40;;
9160;SDS011;4615;51.340;8.288;2024-03-02T12:59:32;2.05;;;1.50;;
9160;SDS011;4615;51.340;8.288;2024-03-02T13:01:59;1.50;;;1.40;;
9160;SDS011;4615;51.340;8.288;2024-03-02T13:04:27;1.50;;;1.40;;
9160;SDS011;4615;51.340;8.288;2024-03-02T13:06:54;1.85;;;1.60;;
9160;SDS011;4615;51.340;8.288;2024-03-02T13:09:21;1.70;;;1.60;;
9160;SDS011;4615;51.340;8.288;2024-03-02T13:11:49;1.73;;;1.63;;
9160;SDS011;4615;51.340;8.288;2024-03-02T13:14:16;3.53;;;2.10;;
9160;SDS011;4615;51.340;8.288;2024-03-02T13:16:42;2.03;;;1.83;;
9160;SDS011;4615;51.340;8.288;2024-03-02T13:19:08;2.17;;;1.90;;
9160;SDS011;4615;51.340;8.288;2024-03-02T13:21:35;2.53;;;1.90;;
9160;SDS011;4615;51.340;8.288;2024-03-02T13:24:01;1.73;;;1.60;;
9160;SDS011;4615;51.340;8.288;2024-03-02T13:26:28;1.77;;;1.67;;
9160;SDS011;4615;51.340;8.288;2024-03-02T13:28:56;2.13;;;1.77;;
9160;SDS011;4615;51.340;8.288;2024-03-02T13:31:22;2.60;;;1.70;;
9160;SDS011;4615;51.340;8.288;2024-03-02T13:33:48;2.08;;;1.88;;
9160;SDS011;4615;51.340;8.288;2024-03-02T13:36:15;2.80;;;2.10;;
9160;SDS011;4615;51.340;8.288;2024-03-02T13:38:42;2.15;;;1.95;;
9160;SDS011;4615;51.340;8.288;2024-03-02T13:41:08;2.00;;;1.90;;
9160;SDS011;4615;51.340;8.288;2024-03-02T13:43:36;2.05;;;1.90;;
9160;SDS011;4615;51.340;8.288;2024-03-02T13:46:05;3.65;;;2.30;;
9160;SDS011;4615;51.340;8.288;2024-03-02T13:48:31;2.92;;;2.63;;
9160;SDS011;4615;51.340;8.288;2024-03-02T13:50:58;2.55;;;2.33;;
9160;SDS011;4615;51.340;8.288;2024-03-02T13:53:24;2.60;;;2.10;;
9160;SDS011;4615;51.340;8.288;2024-03-02T13:55:50;5.20;;;3.08;;
9160;SDS011;4615;51.340;8.288;2024-03-02T13:58:17;3.30;;;2.70;;
9160;SDS011;4615;51.340;8.288;2024-03-02T14:00:45;3.30;;;2.90;;
9160;SDS011;4615;51.340;8.288;2024-03-02T14:03:13;3.13;;;2.83;;
9160;SDS011;4615;51.340;8.288;2024-03-02T14:05:40;3.25;;;2.95;;
9160;SDS011;4615;51.340;8.288;2024-03-02T14:08:07;3.17;;;2.90;;
9160;SDS011;4615;51.340;8.288;2024-03-02T14:10:33;3.75;;;3.22;;
9160;SDS011;4615;51.340;8.288;2024-03-02T14:13:00;3.43;;;3.13;;
9160;SDS011;4615;51.340;8.288;2024-03-02T14:15:27;3.20;;;2.90;;
9160;SDS011;4615;51.340;8.288;2024-03-02T14:17:55;4.10;;;3.10;;
9160;SDS011;4615;51.340;8.288;2024-03-02T14:20:22;3.20;;;2.90;;
9160;SDS011;4615;51.340;8.288;2024-03-02T14:22:49;3.03;;;2.70;;
9160;SDS011;4615;51.340;8.288;2024-03-02T14:25:15;3.20;;;2.90;;
9160;SDS011;4615;51.340;8.288;2024-03-02T14:27:42;3.60;;;3.30;;
9160;SDS011;4615;51.340;8.288;2024-03-02T14:30:09;3.30;;;3.00;;
9160;SDS011;4615;51.340;8.288;2024-03-02T14:32:35;3.08;;;2.78;;
9160;SDS011;4615;51.340;8.288;2024-03-02T14:35:02;2.88;;;2.63;;
9160;SDS011;4615;51.340;8.288;2024-03-02T14:37:30;3.28;;;2.90;;
9160;SDS011;4615;51.340;8.288;2024-03-02T14:39:56;3.75;;;3.10;;
9160;SDS011;4615;51.340;8.288;2024-03-02T14:42:23;3.67;;;3.00;;
9160;SDS011;4615;51.340;8.288;2024-03-02T14:44:49;2.53;;;2.33;;
9160;SDS011;4615;51.340;8.288;2024-03-02T14:47:16;2.83;;;1.77;;
9160;SDS011;4615;51.340;8.288;2024-03-02T14:49:43;1.70;;;1.60;;
9160;SDS011;4615;51.340;8.288;2024-03-02T14:52:09;1.88;;;1.70;;
9160;SDS011;4615;51.340;8.288;2024-03-02T14:54:37;2.10;;;1.90;;
9160;SDS011;4615;51.340;8.288;2024-03-02T14:57:04;1.95;;;1.75;;
9160;SDS011;4615;51.340;8.288;2024-03-02T14:59:30;2.00;;;1.80;;
9160;SDS011;4615;51.340;8.288;2024-03-02T15:01:56;2.20;;;2.00;;
9160;SDS011;4615;51.340;8.288;2024-03-02T15:04:23;2.53;;;2.00;;
9160;SDS011;4615;51.340;8.288;2024-03-02T15:06:49;2.63;;;2.40;;
9160;SDS011;4615;51.340;8.288;2024-03-02T15:09:16;3.00;;;2.70;;
9160;SDS011;4615;51.340;8.288;2024-03-02T15:11:45;2.58;;;2.35;;
9160;SDS011;4615;51.340;8.288;2024-03-02T15:14:11;2.70;;;2.50;;
9160;SDS011;4615;51.340;8.288;2024-03-02T15:16:37;3.40;;;3.03;;